sensor_id;sensor_type;location;lat;lon;timestamp;pressure;altitude;pressure_sealevel;temperature;humidity
56689;BME280;42565;53.342;-1.534;2022-07-11T00:01:06;99894.19;;;24.34;34.67
56689;BME280;42565;53.342;-1.534;2022-07-11T00:03:34;99896.53;;;24.39;34.92
56689;BME280;42565;53.342;-1.534;2022-07-11T00:06:01;99897.11;;;24.12;34.80
56689;BME280;42565;53.342;-1.534;2022-07-11T00:08:29;99896.30;;;24.42;34.88
56689;BME280;42565;53.342;-1.534;2022-07-11T00:10:56;99893.73;;;24.20;34.47
56689;BME280;42565;53.342;-1.534;2022-07-11T00:13:24;99891.69;;;24.47;34.77
56689;BME280;42565;53.342;-1.534;2022-07-11T00:15:51;99889.65;;;24.17;35.01
56689;BME280;42565;53.342;-1.534;2022-07-11T00:18:19;99882.90;;;24.43;34.46
56689;BME280;42565;53.342;-1.534;2022-07-11T00:20:46;99880.17;;;24.16;34.67
56689;BME280;42565;53.342;-1.534;2022-07-11T00:23:14;99878.06;;;24.12;35.08
56689;BME280;42565;53.342;-1.534;2022-07-11T00:25:41;99876.50;;;23.68;35.15
56689;BME280;42565;53.342;-1.534;2022-07-11T00:28:08;99880.71;;;24.38;34.85
56689;BME280;42565;53.342;-1.534;2022-07-11T00:30:36;99875.82;;;23.98;35.24
56689;BME280;42565;53.342;-1.534;2022-07-11T00:33:03;99874.47;;;23.96;35.29
56689;BME280;42565;53.342;-1.534;2022-07-11T00:35:31;99873.07;;;24.12;34.67
56689;BME280;42565;53.342;-1.534;2022-07-11T00:37:58;99869.42;;;24.31;34.09
56689;BME280;42565;53.342;-1.534;2022-07-11T00:40:26;99872.03;;;24.26;34.70
56689;BME280;42565;53.342;-1.534;2022-07-11T00:42:53;99870.34;;;23.65;35.29
56689;BME280;42565;53.342;-1.534;2022-07-11T00:45:21;99870.71;;;23.82;34.69
56689;BME280;42565;53.342;-1.534;2022-07-11T00:47:48;99873.45;;;23.79;34.60
56689;BME280;42565;53.342;-1.534;2022-07-11T00:50:16;99871.44;;;24.00;34.67
56689;BME280;42565;53.342;-1.534;2022-07-11T00:52:43;99874.39;;;23.52;34.53
56689;BME280;42565;53.342;-1.534;2022-07-11T00:55:12;99873.95;;;23.70;35.14
56689;BME280;42565;53.342;-1.534;2022-07-11T00:57:40;99872.33;;;23.67;34.85
56689;BME280;42565;53.342;-1.534;2022-07-11T01:00:08;99870.37;;;24.21;34.89
56689;BME280;42565;53.342;-1.534;2022-07-11T01:02:35;99870.62;;;23.84;34.91
56689;BME280;42565;53.342;-1.534;2022-07-11T01:05:03;99869.29;;;24.00;34.74
56689;BME280;42565;53.342;-1.534;2022-07-11T01:07:30;99867.30;;;24.04;34.58
56689;BME280;42565;53.342;-1.534;2022-07-11T01:09:58;99866.40;;;24.54;33.96
56689;BME280;42565;53.342;-1.534;2022-07-11T01:12:25;99868.86;;;24.35;33.97
56689;BME280;42565;53.342;-1.534;2022-07-11T01:14:54;99869.14;;;23.95;33.93
56689;BME280;42565;53.342;-1.534;2022-07-11T01:17:21;99869.34;;;24.03;34.49
56689;BME280;42565;53.342;-1.534;2022-07-11T01:19:49;99865.85;;;23.64;34.75
56689;BME280;42565;53.342;-1.534;2022-07-11T01:22:19;99864.63;;;23.81;34.28
56689;BME280;42565;53.342;-1.534;2022-07-11T01:24:47;99861.26;;;23.21;35.49
56689;BME280;42565;53.342;-1.534;2022-07-11T01:27:15;99860.65;;;23.33;35.47
56689;BME280;42565;53.342;-1.534;2022-07-11T01:29:42;99858.35;;;23.25;35.60
56689;BME280;42565;53.342;-1.534;2022-07-11T01:32:10;99856.41;;;23.60;35.71
56689;BME280;42565;53.342;-1.534;2022-07-11T01:34:38;99850.47;;;23.56;35.85
56689;BME280;42565;53.342;-1.534;2022-07-11T01:37:05;99847.48;;;23.42;35.70
56689;BME280;42565;53.342;-1.534;2022-07-11T01:39:32;99843.36;;;23.30;35.95
56689;BME280;42565;53.342;-1.534;2022-07-11T01:42:00;99842.25;;;23.12;36.12
56689;BME280;42565;53.342;-1.534;2022-07-11T01:44:26;99841.10;;;23.37;36.27
56689;BME280;42565;53.342;-1.534;2022-07-11T01:46:54;99835.00;;;23.44;36.17
56689;BME280;42565;53.342;-1.534;2022-07-11T01:49:22;99829.76;;;23.18;36.26
56689;BME280;42565;53.342;-1.534;2022-07-11T01:51:49;99831.26;;;23.04;36.30
56689;BME280;42565;53.342;-1.534;2022-07-11T01:54:17;99832.33;;;23.19;35.96
56689;BME280;42565;53.342;-1.534;2022-07-11T01:56:44;99829.65;;;23.09;36.06
56689;BME280;42565;53.342;-1.534;2022-07-11T01:59:12;99826.01;;;23.09;36.01
56689;BME280;42565;53.342;-1.534;2022-07-11T02:01:40;99827.50;;;22.90;36.19
56689;BME280;42565;53.342;-1.534;2022-07-11T02:04:07;99825.48;;;23.17;35.95
56689;BME280;42565;53.342;-1.534;2022-07-11T02:06:34;99822.02;;;23.08;35.91
56689;BME280;42565;53.342;-1.534;2022-07-11T02:09:01;99819.84;;;23.09;35.91
56689;BME280;42565;53.342;-1.534;2022-07-11T02:11:28;99816.48;;;23.07;35.70
56689;BME280;42565;53.342;-1.534;2022-07-11T02:13:56;99811.04;;;22.46;36.02
56689;BME280;42565;53.342;-1.534;2022-07-11T02:16:23;99805.24;;;22.53;36.25
56689;BME280;42565;53.342;-1.534;2022-07-11T02:18:50;99800.13;;;22.65;35.79
56689;BME280;42565;53.342;-1.534;2022-07-11T02:21:17;99802.36;;;22.44;35.84
56689;BME280;42565;53.342;-1.534;2022-07-11T02:23:43;99804.24;;;22.39;35.41
56689;BME280;42565;53.342;-1.534;2022-07-11T02:26:10;99801.91;;;22.78;34.96
56689;BME280;42565;53.342;-1.534;2022-07-11T02:28:42;99798.94;;;22.91;34.68
56689;BME280;42565;53.342;-1.534;2022-07-11T02:31:10;99799.69;;;23.26;34.36
56689;BME280;42565;53.342;-1.534;2022-07-11T02:33:37;99797.44;;;23.24;34.50
56689;BME280;42565;53.342;-1.534;2022-07-11T02:36:15;99800.21;;;22.98;34.72
56689;BME280;42565;53.342;-1.534;2022-07-11T02:38:48;99798.08;;;22.93;34.41
56689;BME280;42565;53.342;-1.534;2022-07-11T02:41:15;99798.78;;;23.13;34.51
56689;BME280;42565;53.342;-1.534;2022-07-11T02:43:43;99794.70;;;22.72;34.65
56689;BME280;42565;53.342;-1.534;2022-07-11T02:46:10;99793.53;;;23.14;34.53
56689;BME280;42565;53.342;-1.534;2022-07-11T02:48:40;99789.74;;;23.23;34.24
56689;BME280;42565;53.342;-1.534;2022-07-11T02:51:12;99785.81;;;23.07;34.13
56689;BME280;42565;53.342;-1.534;2022-07-11T02:53:44;99783.15;;;23.36;34.50
56689;BME280;42565;53.342;-1.534;2022-07-11T02:56:11;99782.20;;;22.91;34.46
56689;BME280;42565;53.342;-1.534;2022-07-11T02:58:38;99783.24;;;23.47;34.49
56689;BME280;42565;53.342;-1.534;2022-07-11T03:01:05;99784.89;;;23.05;34.80
56689;BME280;42565;53.342;-1.534;2022-07-11T03:03:32;99784.04;;;23.37;34.18
56689;BME280;42565;53.342;-1.534;2022-07-11T03:05:59;99782.57;;;23.20;34.06
56689;BME280;42565;53.342;-1.534;2022-07-11T03:08:27;99781.33;;;23.16;33.98
56689;BME280;42565;53.342;-1.534;2022-07-11T03:10:54;99780.76;;;22.86;34.38
56689;BME280;42565;53.342;-1.534;2022-07-11T03:13:22;99776.57;;;23.07;34.15
56689;BME280;42565;53.342;-1.534;2022-07-11T03:15:48;99777.09;;;23.15;34.09
56689;BME280;42565;53.342;-1.534;2022-07-11T03:18:15;99777.15;;;22.77;34.66
56689;BME280;42565;53.342;-1.534;2022-07-11T03:20:42;99777.76;;;22.79;33.78
56689;BME280;42565;53.342;-1.534;2022-07-11T03:23:08;99781.55;;;23.31;33.43
56689;BME280;42565;53.342;-1.534;2022-07-11T03:25:36;99783.02;;;23.52;33.26
56689;BME280;42565;53.342;-1.534;2022-07-11T03:28:04;99785.14;;;23.85;33.69
56689;BME280;42565;53.342;-1.534;2022-07-11T03:30:31;99782.46;;;23.46;33.67
56689;BME280;42565;53.342;-1.534;2022-07-11T03:32:58;99784.10;;;23.30;33.80
56689;BME280;42565;53.342;-1.534;2022-07-11T03:35:25;99783.46;;;23.10;33.84
56689;BME280;42565;53.342;-1.534;2022-07-11T03:37:52;99779.31;;;23.04;34.00
56689;BME280;42565;53.342;-1.534;2022-07-11T03:40:18;99780.52;;;23.03;34.13
56689;BME280;42565;53.342;-1.534;2022-07-11T03:42:45;99779.11;;;22.77;34.21
56689;BME280;42565;53.342;-1.534;2022-07-11T03:45:12;99780.68;;;22.71;34.69
56689;BME280;42565;53.342;-1.534;2022-07-11T03:47:39;99776.89;;;22.80;34.69
56689;BME280;42565;53.342;-1.534;2022-07-11T03:50:07;99779.20;;;23.02;34.50
56689;BME280;42565;53.342;-1.534;2022-07-11T03:52:34;99779.58;;;22.64;34.98
56689;BME280;42565;53.342;-1.534;2022-07-11T03:55:01;99776.84;;;22.70;34.93
56689;BME280;42565;53.342;-1.534;2022-07-11T03:57:29;99776.98;;;22.69;35.24
56689;BME280;42565;53.342;-1.534;2022-07-11T03:59:56;99777.57;;;22.67;35.28
56689;BME280;42565;53.342;-1.534;2022-07-11T04:02:23;99775.53;;;22.57;35.57
56689;BME280;42565;53.342;-1.534;2022-07-11T04:04:50;99775.13;;;22.60;35.71
56689;BME280;42565;53.342;-1.534;2022-07-11T04:07:17;99779.73;;;22.44;35.76
56689;BME280;42565;53.342;-1.534;2022-07-11T04:09:45;99777.51;;;22.34;36.17
56689;BME280;42565;53.342;-1.534;2022-07-11T04:12:12;99779.66;;;22.40;36.24
56689;BME280;42565;53.342;-1.534;2022-07-11T04:14:40;99784.37;;;22.39;35.63
56689;BME280;42565;53.342;-1.534;2022-07-11T04:17:07;99780.41;;;22.32;35.44
56689;BME280;42565;53.342;-1.534;2022-07-11T04:19:34;99775.38;;;22.34;35.41
56689;BME280;42565;53.342;-1.534;2022-07-11T04:22:00;99777.33;;;22.23;34.92
56689;BME280;42565;53.342;-1.534;2022-07-11T04:24:27;99778.79;;;22.35;34.73
56689;BME280;42565;53.342;-1.534;2022-07-11T04:26:55;99774.94;;;22.24;34.62
56689;BME280;42565;53.342;-1.534;2022-07-11T04:29:22;99773.70;;;22.22;34.65
56689;BME280;42565;53.342;-1.534;2022-07-11T04:31:50;99770.90;;;22.29;35.28
56689;BME280;42565;53.342;-1.534;2022-07-11T04:34:17;99771.78;;;22.16;35.13
56689;BME280;42565;53.342;-1.534;2022-07-11T04:36:45;99775.51;;;22.55;34.92
56689;BME280;42565;53.342;-1.534;2022-07-11T04:39:13;99780.32;;;22.51;34.89
56689;BME280;42565;53.342;-1.534;2022-07-11T04:41:40;99778.23;;;22.46;34.90
56689;BME280;42565;53.342;-1.534;2022-07-11T04:44:07;99776.57;;;22.45;34.81
56689;BME280;42565;53.342;-1.534;2022-07-11T04:46:35;99774.39;;;22.68;34.68
56689;BME280;42565;53.342;-1.534;2022-07-11T04:49:02;99772.95;;;22.76;34.77
56689;BME280;42565;53.342;-1.534;2022-07-11T04:51:29;99772.45;;;23.06;34.37
56689;BME280;42565;53.342;-1.534;2022-07-11T04:53:56;99773.40;;;23.09;34.31
56689;BME280;42565;53.342;-1.534;2022-07-11T04:56:22;99775.12;;;23.06;34.36
56689;BME280;42565;53.342;-1.534;2022-07-11T04:58:49;99777.11;;;22.86;33.87
56689;BME280;42565;53.342;-1.534;2022-07-11T05:01:16;99775.83;;;23.00;33.83
56689;BME280;42565;53.342;-1.534;2022-07-11T05:03:42;99777.13;;;23.16;33.44
56689;BME280;42565;53.342;-1.534;2022-07-11T05:06:09;99776.88;;;23.10;33.41
56689;BME280;42565;53.342;-1.534;2022-07-11T05:08:37;99779.07;;;23.43;33.54
56689;BME280;42565;53.342;-1.534;2022-07-11T05:11:04;99782.24;;;23.03;33.31
56689;BME280;42565;53.342;-1.534;2022-07-11T05:13:32;99783.83;;;23.39;33.21
56689;BME280;42565;53.342;-1.534;2022-07-11T05:15:59;99782.39;;;23.23;33.24
56689;BME280;42565;53.342;-1.534;2022-07-11T05:18:27;99781.38;;;23.80;32.38
56689;BME280;42565;53.342;-1.534;2022-07-11T05:20:54;99778.81;;;23.71;32.17
56689;BME280;42565;53.342;-1.534;2022-07-11T05:23:22;99779.72;;;23.88;32.01
56689;BME280;42565;53.342;-1.534;2022-07-11T05:25:48;99777.57;;;23.44;32.21
56689;BME280;42565;53.342;-1.534;2022-07-11T05:28:15;99775.39;;;24.27;32.13
56689;BME280;42565;53.342;-1.534;2022-07-11T05:30:43;99776.37;;;23.91;31.68
56689;BME280;42565;53.342;-1.534;2022-07-11T05:33:09;99773.14;;;24.41;31.25
56689;BME280;42565;53.342;-1.534;2022-07-11T05:35:36;99775.25;;;24.51;31.07
56689;BME280;42565;53.342;-1.534;2022-07-11T05:38:04;99773.88;;;24.63;30.93
56689;BME280;42565;53.342;-1.534;2022-07-11T05:40:30;99775.71;;;24.56;30.99
56689;BME280;42565;53.342;-1.534;2022-07-11T05:42:58;99780.20;;;23.65;31.89
56689;BME280;42565;53.342;-1.534;2022-07-11T05:45:25;99780.95;;;23.57;32.73
56689;BME280;42565;53.342;-1.534;2022-07-11T05:47:52;99778.43;;;23.90;32.32
56689;BME280;42565;53.342;-1.534;2022-07-11T05:50:39;99777.35;;;24.73;31.66
56689;BME280;42565;53.342;-1.534;2022-07-11T05:53:16;99777.21;;;24.56;31.73
56689;BME280;42565;53.342;-1.534;2022-07-11T05:55:43;99777.86;;;24.36;31.50
56689;BME280;42565;53.342;-1.534;2022-07-11T05:58:11;99781.39;;;24.39;31.42
56689;BME280;42565;53.342;-1.534;2022-07-11T06:00:39;99780.59;;;24.69;31.29
56689;BME280;42565;53.342;-1.534;2022-07-11T06:03:06;99779.85;;;24.54;31.66
56689;BME280;42565;53.342;-1.534;2022-07-11T06:05:33;99780.31;;;24.60;31.98
56689;BME280;42565;53.342;-1.534;2022-07-11T06:08:01;99780.47;;;24.60;31.78
56689;BME280;42565;53.342;-1.534;2022-07-11T06:10:28;99780.41;;;25.06;32.04
56689;BME280;42565;53.342;-1.534;2022-07-11T06:12:56;99779.65;;;25.10;32.05
56689;BME280;42565;53.342;-1.534;2022-07-11T06:15:22;99782.69;;;25.04;32.24
56689;BME280;42565;53.342;-1.534;2022-07-11T06:17:50;99780.89;;;25.32;31.77
56689;BME280;42565;53.342;-1.534;2022-07-11T06:20:18;99782.65;;;25.64;31.46
56689;BME280;42565;53.342;-1.534;2022-07-11T06:22:45;99783.96;;;25.84;31.11
56689;BME280;42565;53.342;-1.534;2022-07-11T06:25:12;99783.17;;;26.13;30.64
56689;BME280;42565;53.342;-1.534;2022-07-11T06:27:40;99785.04;;;25.94;31.04
56689;BME280;42565;53.342;-1.534;2022-07-11T06:30:07;99784.35;;;25.86;31.03
56689;BME280;42565;53.342;-1.534;2022-07-11T06:32:34;99783.27;;;26.25;30.69
56689;BME280;42565;53.342;-1.534;2022-07-11T06:35:02;99785.27;;;26.40;30.63
56689;BME280;42565;53.342;-1.534;2022-07-11T06:37:29;99785.62;;;26.29;31.45
56689;BME280;42565;53.342;-1.534;2022-07-11T06:39:56;99785.75;;;26.24;31.81
56689;BME280;42565;53.342;-1.534;2022-07-11T06:42:24;99787.37;;;26.29;31.93
56689;BME280;42565;53.342;-1.534;2022-07-11T06:44:51;99786.82;;;26.62;31.42
56689;BME280;42565;53.342;-1.534;2022-07-11T06:47:19;99783.53;;;26.13;31.96
56689;BME280;42565;53.342;-1.534;2022-07-11T06:49:46;99783.67;;;26.17;32.19
56689;BME280;42565;53.342;-1.534;2022-07-11T06:52:13;99783.43;;;25.60;32.98
56689;BME280;42565;53.342;-1.534;2022-07-11T06:54:40;99783.53;;;25.17;34.23
56689;BME280;42565;53.342;-1.534;2022-07-11T06:57:08;99783.41;;;25.74;34.53
56689;BME280;42565;53.342;-1.534;2022-07-11T06:59:34;99783.94;;;26.22;34.80
56689;BME280;42565;53.342;-1.534;2022-07-11T07:02:01;99785.54;;;25.96;35.08
56689;BME280;42565;53.342;-1.534;2022-07-11T07:04:29;99787.88;;;26.20;34.02
56689;BME280;42565;53.342;-1.534;2022-07-11T07:06:55;99786.72;;;25.78;33.51
56689;BME280;42565;53.342;-1.534;2022-07-11T07:09:22;99785.73;;;25.57;34.17
56689;BME280;42565;53.342;-1.534;2022-07-11T07:11:49;99783.83;;;25.26;34.07
56689;BME280;42565;53.342;-1.534;2022-07-11T07:14:15;99787.79;;;24.71;34.37
56689;BME280;42565;53.342;-1.534;2022-07-11T07:16:42;99788.48;;;25.20;34.19
56689;BME280;42565;53.342;-1.534;2022-07-11T07:19:09;99788.38;;;25.38;31.89
56689;BME280;42565;53.342;-1.534;2022-07-11T07:21:35;99786.87;;;24.88;31.09
56689;BME280;42565;53.342;-1.534;2022-07-11T07:24:02;99787.52;;;24.85;29.08
56689;BME280;42565;53.342;-1.534;2022-07-11T07:26:29;99789.02;;;25.03;29.22
56689;BME280;42565;53.342;-1.534;2022-07-11T07:28:56;99789.54;;;25.34;28.85
56689;BME280;42565;53.342;-1.534;2022-07-11T07:31:24;99788.39;;;25.22;29.93
56689;BME280;42565;53.342;-1.534;2022-07-11T07:33:51;99790.87;;;25.42;29.64
56689;BME280;42565;53.342;-1.534;2022-07-11T07:36:19;99795.46;;;25.71;30.51
56689;BME280;42565;53.342;-1.534;2022-07-11T07:38:46;99798.29;;;25.44;30.15
56689;BME280;42565;53.342;-1.534;2022-07-11T07:41:13;99798.10;;;25.33;29.57
56689;BME280;42565;53.342;-1.534;2022-07-11T07:43:41;99797.71;;;25.80;29.69
56689;BME280;42565;53.342;-1.534;2022-07-11T07:46:08;99795.89;;;26.21;29.38
56689;BME280;42565;53.342;-1.534;2022-07-11T07:48:36;99796.17;;;25.99;29.60
56689;BME280;42565;53.342;-1.534;2022-07-11T07:51:03;99798.85;;;25.88;30.42
56689;BME280;42565;53.342;-1.534;2022-07-11T07:53:30;99798.24;;;25.79;31.84
56689;BME280;42565;53.342;-1.534;2022-07-11T07:55:57;99797.64;;;26.10;31.74
56689;BME280;42565;53.342;-1.534;2022-07-11T07:58:24;99795.30;;;26.55;31.17
56689;BME280;42565;53.342;-1.534;2022-07-11T08:00:52;99797.64;;;25.69;33.23
56689;BME280;42565;53.342;-1.534;2022-07-11T08:03:19;99797.43;;;25.64;34.00
56689;BME280;42565;53.342;-1.534;2022-07-11T08:05:46;99796.85;;;26.10;32.86
56689;BME280;42565;53.342;-1.534;2022-07-11T08:08:13;99796.26;;;26.01;33.28
56689;BME280;42565;53.342;-1.534;2022-07-11T08:10:40;99796.73;;;25.87;33.24
56689;BME280;42565;53.342;-1.534;2022-07-11T08:13:07;99792.65;;;26.73;32.19
56689;BME280;42565;53.342;-1.534;2022-07-11T08:15:35;99795.53;;;26.49;32.47
56689;BME280;42565;53.342;-1.534;2022-07-11T08:18:01;99797.40;;;26.66;32.18
56689;BME280;42565;53.342;-1.534;2022-07-11T08:20:29;99795.09;;;26.44;32.01
56689;BME280;42565;53.342;-1.534;2022-07-11T08:22:59;99798.03;;;26.56;32.46
56689;BME280;42565;53.342;-1.534;2022-07-11T08:25:27;99803.28;;;26.78;31.99
56689;BME280;42565;53.342;-1.534;2022-07-11T08:27:54;99796.79;;;26.53;32.72
56689;BME280;42565;53.342;-1.534;2022-07-11T08:30:21;99790.32;;;26.25;33.04
56689;BME280;42565;53.342;-1.534;2022-07-11T08:32:48;99789.24;;;25.78;33.37
56689;BME280;42565;53.342;-1.534;2022-07-11T08:35:15;99786.21;;;26.77;32.17
56689;BME280;42565;53.342;-1.534;2022-07-11T08:37:42;99787.86;;;27.63;32.41
56689;BME280;42565;53.342;-1.534;2022-07-11T08:40:10;99791.95;;;27.81;31.63
56689;BME280;42565;53.342;-1.534;2022-07-11T08:42:41;99792.52;;;27.81;31.06
56689;BME280;42565;53.342;-1.534;2022-07-11T08:45:11;99795.41;;;28.20;30.49
56689;BME280;42565;53.342;-1.534;2022-07-11T08:47:39;99795.61;;;27.83;27.77
56689;BME280;42565;53.342;-1.534;2022-07-11T08:50:08;99797.37;;;26.24;29.09
56689;BME280;42565;53.342;-1.534;2022-07-11T08:52:36;99788.31;;;26.67;28.46
56689;BME280;42565;53.342;-1.534;2022-07-11T08:55:04;99793.80;;;27.11;27.29
56689;BME280;42565;53.342;-1.534;2022-07-11T08:57:31;99788.07;;;26.87;27.50
56689;BME280;42565;53.342;-1.534;2022-07-11T08:59:58;99790.21;;;27.80;26.87
56689;BME280;42565;53.342;-1.534;2022-07-11T09:02:27;99786.85;;;28.20;25.86
56689;BME280;42565;53.342;-1.534;2022-07-11T09:04:55;99784.35;;;28.37;25.31
56689;BME280;42565;53.342;-1.534;2022-07-11T09:07:23;99779.40;;;28.23;25.50
56689;BME280;42565;53.342;-1.534;2022-07-11T09:09:50;99777.54;;;28.95;25.66
56689;BME280;42565;53.342;-1.534;2022-07-11T09:12:17;99774.34;;;29.27;25.70
56689;BME280;42565;53.342;-1.534;2022-07-11T09:14:47;99774.45;;;29.97;25.04
56689;BME280;42565;53.342;-1.534;2022-07-11T09:17:15;99770.64;;;29.90;25.12
56689;BME280;42565;53.342;-1.534;2022-07-11T09:20:12;99768.82;;;30.43;25.01
56689;BME280;42565;53.342;-1.534;2022-07-11T09:22:40;99757.45;;;29.62;24.58
56689;BME280;42565;53.342;-1.534;2022-07-11T09:25:10;99760.60;;;29.18;26.01
56689;BME280;42565;53.342;-1.534;2022-07-11T09:27:43;99757.82;;;29.22;25.15
56689;BME280;42565;53.342;-1.534;2022-07-11T09:30:21;99758.11;;;29.95;25.41
56689;BME280;42565;53.342;-1.534;2022-07-11T09:32:54;99762.29;;;28.43;25.93
56689;BME280;42565;53.342;-1.534;2022-07-11T09:35:24;99759.84;;;28.05;27.19
56689;BME280;42565;53.342;-1.534;2022-07-11T09:37:51;99759.25;;;28.45;26.93
56689;BME280;42565;53.342;-1.534;2022-07-11T09:40:20;99760.23;;;29.34;26.45
56689;BME280;42565;53.342;-1.534;2022-07-11T09:42:49;99760.02;;;29.58;25.65
56689;BME280;42565;53.342;-1.534;2022-07-11T09:45:17;99761.65;;;28.03;26.45
56689;BME280;42565;53.342;-1.534;2022-07-11T09:47:48;99759.42;;;28.06;27.05
56689;BME280;42565;53.342;-1.534;2022-07-11T09:50:20;99766.57;;;27.34;28.13
56689;BME280;42565;53.342;-1.534;2022-07-11T09:53:05;99768.28;;;28.14;27.67
56689;BME280;42565;53.342;-1.534;2022-07-11T09:55:35;99758.13;;;28.93;26.15
56689;BME280;42565;53.342;-1.534;2022-07-11T09:58:04;99761.61;;;29.58;25.62
56689;BME280;42565;53.342;-1.534;2022-07-11T10:00:33;99754.38;;;29.18;25.28
56689;BME280;42565;53.342;-1.534;2022-07-11T10:03:00;99756.97;;;29.71;25.80
56689;BME280;42565;53.342;-1.534;2022-07-11T10:05:29;99759.65;;;28.72;26.93
56689;BME280;42565;53.342;-1.534;2022-07-11T10:07:56;99757.66;;;27.55;27.50
56689;BME280;42565;53.342;-1.534;2022-07-11T10:10:24;99754.14;;;28.80;26.63
56689;BME280;42565;53.342;-1.534;2022-07-11T10:12:52;99756.11;;;28.82;26.43
56689;BME280;42565;53.342;-1.534;2022-07-11T10:15:23;99757.44;;;27.63;28.58
56689;BME280;42565;53.342;-1.534;2022-07-11T10:17:58;99757.21;;;28.15;28.16
56689;BME280;42565;53.342;-1.534;2022-07-11T10:20:31;99750.74;;;28.62;27.74
56689;BME280;42565;53.342;-1.534;2022-07-11T10:23:07;99754.31;;;28.64;28.06
56689;BME280;42565;53.342;-1.534;2022-07-11T10:25:42;99746.23;;;27.74;28.00
56689;BME280;42565;53.342;-1.534;2022-07-11T10:28:21;99744.99;;;27.79;28.28
56689;BME280;42565;53.342;-1.534;2022-07-11T10:30:50;99748.85;;;28.19;27.65
56689;BME280;42565;53.342;-1.534;2022-07-11T10:33:18;99741.78;;;29.01;27.31
56689;BME280;42565;53.342;-1.534;2022-07-11T10:35:48;99741.68;;;29.02;26.27
56689;BME280;42565;53.342;-1.534;2022-07-11T10:38:16;99739.40;;;29.20;26.04
56689;BME280;42565;53.342;-1.534;2022-07-11T10:40:46;99736.94;;;28.67;26.12
56689;BME280;42565;53.342;-1.534;2022-07-11T10:43:16;99746.00;;;27.72;26.64
56689;BME280;42565;53.342;-1.534;2022-07-11T10:45:59;99736.09;;;27.94;27.59
56689;BME280;42565;53.342;-1.534;2022-07-11T10:48:29;99725.64;;;29.21;25.69
56689;BME280;42565;53.342;-1.534;2022-07-11T10:51:10;99738.26;;;28.88;25.96
56689;BME280;42565;53.342;-1.534;2022-07-11T10:53:45;99732.71;;;28.56;27.24
56689;BME280;42565;53.342;-1.534;2022-07-11T10:56:23;99741.58;;;27.70;26.86
56689;BME280;42565;53.342;-1.534;2022-07-11T10:59:01;99736.58;;;28.38;25.84
56689;BME280;42565;53.342;-1.534;2022-07-11T11:01:32;99729.28;;;29.83;25.29
56689;BME280;42565;53.342;-1.534;2022-07-11T11:04:42;99731.16;;;29.06;24.78
56689;BME280;42565;53.342;-1.534;2022-07-11T11:07:28;99730.72;;;28.40;26.45
56689;BME280;42565;53.342;-1.534;2022-07-11T11:09:56;99731.36;;;28.63;27.37
56689;BME280;42565;53.342;-1.534;2022-07-11T11:13:10;99731.73;;;29.53;25.64
56689;BME280;42565;53.342;-1.534;2022-07-11T11:15:40;99731.09;;;29.72;26.24
56689;BME280;42565;53.342;-1.534;2022-07-11T11:18:42;99734.19;;;30.18;24.93
56689;BME280;42565;53.342;-1.534;2022-07-11T11:21:19;99730.30;;;30.10;24.43
56689;BME280;42565;53.342;-1.534;2022-07-11T11:24:01;99741.69;;;28.88;24.87
56689;BME280;42565;53.342;-1.534;2022-07-11T11:26:45;99735.91;;;28.59;25.47
56689;BME280;42565;53.342;-1.534;2022-07-11T11:29:18;99731.93;;;29.80;24.85
56689;BME280;42565;53.342;-1.534;2022-07-11T11:31:49;99741.20;;;29.81;24.57
56689;BME280;42565;53.342;-1.534;2022-07-11T11:34:17;99737.77;;;28.73;25.68
56689;BME280;42565;53.342;-1.534;2022-07-11T11:36:52;99731.08;;;28.45;25.91
56689;BME280;42565;53.342;-1.534;2022-07-11T11:39:25;99725.92;;;29.12;26.29
56689;BME280;42565;53.342;-1.534;2022-07-11T11:41:52;99722.95;;;30.16;25.64
56689;BME280;42565;53.342;-1.534;2022-07-11T11:44:21;99722.98;;;30.22;23.58
56689;BME280;42565;53.342;-1.534;2022-07-11T11:46:50;99718.79;;;30.30;25.00
56689;BME280;42565;53.342;-1.534;2022-07-11T11:49:17;99715.59;;;31.31;24.12
56689;BME280;42565;53.342;-1.534;2022-07-11T11:51:44;99717.86;;;31.55;23.36
56689;BME280;42565;53.342;-1.534;2022-07-11T11:54:21;99718.28;;;31.88;23.79
56689;BME280;42565;53.342;-1.534;2022-07-11T11:56:49;99712.41;;;31.97;22.44
56689;BME280;42565;53.342;-1.534;2022-07-11T11:59:16;99715.66;;;31.82;22.29
56689;BME280;42565;53.342;-1.534;2022-07-11T12:01:45;99711.82;;;32.36;21.91
56689;BME280;42565;53.342;-1.534;2022-07-11T12:04:14;99713.29;;;32.51;21.54
56689;BME280;42565;53.342;-1.534;2022-07-11T12:06:43;99709.79;;;31.40;21.68
56689;BME280;42565;53.342;-1.534;2022-07-11T12:09:12;99714.48;;;30.97;22.35
56689;BME280;42565;53.342;-1.534;2022-07-11T12:11:42;99710.66;;;30.55;23.12
56689;BME280;42565;53.342;-1.534;2022-07-11T12:14:12;99707.17;;;31.21;22.96
56689;BME280;42565;53.342;-1.534;2022-07-11T12:16:42;99707.45;;;30.06;24.10
56689;BME280;42565;53.342;-1.534;2022-07-11T12:19:11;99708.26;;;30.42;23.56
56689;BME280;42565;53.342;-1.534;2022-07-11T12:21:40;99701.79;;;30.84;23.15
56689;BME280;42565;53.342;-1.534;2022-07-11T12:24:11;99706.09;;;31.41;22.81
56689;BME280;42565;53.342;-1.534;2022-07-11T12:26:40;99697.91;;;31.66;22.08
56689;BME280;42565;53.342;-1.534;2022-07-11T12:29:10;99694.95;;;31.60;22.79
56689;BME280;42565;53.342;-1.534;2022-07-11T12:31:42;99699.15;;;31.31;22.47
56689;BME280;42565;53.342;-1.534;2022-07-11T12:34:10;99690.92;;;30.58;23.31
56689;BME280;42565;53.342;-1.534;2022-07-11T12:36:39;99698.10;;;30.26;23.37
56689;BME280;42565;53.342;-1.534;2022-07-11T12:39:07;99692.94;;;30.47;23.33
56689;BME280;42565;53.342;-1.534;2022-07-11T12:41:35;99697.05;;;31.66;21.89
56689;BME280;42565;53.342;-1.534;2022-07-11T12:44:03;99693.77;;;31.33;22.81
56689;BME280;42565;53.342;-1.534;2022-07-11T12:46:30;99698.70;;;31.21;23.07
56689;BME280;42565;53.342;-1.534;2022-07-11T12:49:01;99690.08;;;30.66;22.96
56689;BME280;42565;53.342;-1.534;2022-07-11T12:51:30;99686.35;;;31.65;23.02
56689;BME280;42565;53.342;-1.534;2022-07-11T12:54:01;99679.46;;;31.59;21.22
56689;BME280;42565;53.342;-1.534;2022-07-11T12:56:28;99686.44;;;31.60;21.63
56689;BME280;42565;53.342;-1.534;2022-07-11T12:58:55;99682.61;;;30.26;23.48